sensor_id;sensor_type;location;lat;lon;timestamp;P1;durP1;ratioP1;P2;durP2;ratioP2
57565;SDS011;63999;43.882;-0.310;2023-02-01T00:01:36;7.45;;;5.13;;
57565;SDS011;63999;43.882;-0.310;2023-02-01T00:04:02;5.95;;;4.93;;
57565;SDS011;63999;43.882;-0.310;2023-02-01T00:06:28;7.95;;;4.95;;
57565;SDS011;63999;43.882;-0.310;2023-02-01T00:08:54;7.00;;;4.90;;
57565;SDS011;63999;43.882;-0.310;2023-02-01T00:11:21;8.65;;;4.50;;
57565;SDS011;63999;43.882;-0.310;2023-02-01T00:13:47;6.00;;;4.35;;
57565;SDS011;63999;43.882;-0.310;2023-02-01T00:16:14;5.80;;;4.43;;
57565;SDS011;63999;43.882;-0.310;2023-02-01T00:18:43;5.68;;;3.78;;
57565;SDS011;63999;43.882;-0.310;2023-02-01T00:21:13;7.70;;;4.07;;
57565;SDS011;63999;43.882;-0.310;2023-02-01T00:23:41;5.80;;;3.67;;
57565;SDS011;63999;43.882;-0.310;2023-02-01T00:26:08;5.68;;;3.65;;
57565;SDS011;63999;43.882;-0.310;2023-02-01T00:28:40;8.05;;;3.58;;
57565;SDS011;63999;43.882;-0.310;2023-02-01T00:31:06;5.85;;;3.50;;
57565;SDS011;63999;43.882;-0.310;2023-02-01T00:33:32;6.90;;;3.80;;
57565;SDS011;63999;43.882;-0.310;2023-02-01T00:35:59;6.00;;;3.75;;
57565;SDS011;63999;43.882;-0.310;2023-02-01T00:38:27;5.35;;;3.33;;
57565;SDS011;63999;43.882;-0.310;2023-02-01T00:40:54;7.20;;;3.20;;
57565;SDS011;63999;43.882;-0.310;2023-02-01T00:45:51;4.25;;;2.85;;
57565;SDS011;63999;43.882;-0.310;2023-02-01T00:48:18;3.58;;;2.83;;
57565;SDS011;63999;43.882;-0.310;2023-02-01T00:50:46;4.68;;;2.95;;
57565;SDS011;63999;43.882;-0.310;2023-02-01T00:53:13;4.85;;;3.00;;
57565;SDS011;63999;43.882;-0.310;2023-02-01T00:55:43;4.63;;;3.05;;
57565;SDS011;63999;43.882;-0.310;2023-02-01T00:58:11;3.80;;;2.70;;
57565;SDS011;63999;43.882;-0.310;2023-02-01T01:00:38;5.40;;;2.90;;
57565;SDS011;63999;43.882;-0.310;2023-02-01T01:03:05;4.25;;;2.83;;
57565;SDS011;63999;43.882;-0.310;2023-02-01T01:05:56;4.35;;;3.08;;
57565;SDS011;63999;43.882;-0.310;2023-02-01T01:08:22;3.75;;;2.72;;
57565;SDS011;63999;43.882;-0.310;2023-02-01T01:10:47;5.35;;;3.33;;
57565;SDS011;63999;43.882;-0.310;2023-02-01T01:13:15;5.07;;;3.17;;
57565;SDS011;63999;43.882;-0.310;2023-02-01T01:15:42;4.22;;;3.10;;
57565;SDS011;63999;43.882;-0.310;2023-02-01T01:18:09;6.53;;;3.78;;
57565;SDS011;63999;43.882;-0.310;2023-02-01T01:20:38;6.70;;;3.95;;
57565;SDS011;63999;43.882;-0.310;2023-02-01T01:23:06;4.90;;;4.05;;
57565;SDS011;63999;43.882;-0.310;2023-02-01T01:25:38;5.40;;;3.70;;
57565;SDS011;63999;43.882;-0.310;2023-02-01T01:28:05;4.45;;;3.28;;
57565;SDS011;63999;43.882;-0.310;2023-02-01T01:30:33;4.95;;;3.90;;
57565;SDS011;63999;43.882;-0.310;2023-02-01T01:33:00;5.32;;;4.00;;
57565;SDS011;63999;43.882;-0.310;2023-02-01T01:35:29;5.30;;;3.80;;
57565;SDS011;63999;43.882;-0.310;2023-02-01T01:37:58;4.95;;;3.60;;
57565;SDS011;63999;43.882;-0.310;2023-02-01T01:40:27;5.75;;;4.15;;
57565;SDS011;63999;43.882;-0.310;2023-02-01T01:42:55;6.85;;;3.95;;
57565;SDS011;63999;43.882;-0.310;2023-02-01T01:47:59;6.43;;;4.03;;
57565;SDS011;63999;43.882;-0.310;2023-02-01T01:50:50;4.22;;;3.55;;
57565;SDS011;63999;43.882;-0.310;2023-02-01T01:53:25;7.82;;;3.78;;
57565;SDS011;63999;43.882;-0.310;2023-02-01T01:55:56;5.63;;;3.67;;
57565;SDS011;63999;43.882;-0.310;2023-02-01T01:58:23;4.93;;;3.40;;
57565;SDS011;63999;43.882;-0.310;2023-02-01T02:00:52;5.13;;;3.30;;
57565;SDS011;63999;43.882;-0.310;2023-02-01T02:03:21;7.00;;;3.92;;
57565;SDS011;63999;43.882;-0.310;2023-02-01T02:05:55;6.75;;;3.53;;
57565;SDS011;63999;43.882;-0.310;2023-02-01T02:08:23;4.18;;;3.13;;
57565;SDS011;63999;43.882;-0.310;2023-02-01T02:10:51;5.57;;;3.33;;
57565;SDS011;63999;43.882;-0.310;2023-02-01T02:13:30;6.55;;;3.92;;
57565;SDS011;63999;43.882;-0.310;2023-02-01T02:35:38;5.50;;;3.53;;
57565;SDS011;63999;43.882;-0.310;2023-02-01T02:38:34;4.80;;;3.60;;
57565;SDS011;63999;43.882;-0.310;2023-02-01T02:41:19;6.55;;;3.60;;
57565;SDS011;63999;43.882;-0.310;2023-02-01T02:47:31;5.10;;;3.08;;
57565;SDS011;63999;43.882;-0.310;2023-02-01T02:50:05;5.50;;;3.00;;
57565;SDS011;63999;43.882;-0.310;2023-02-01T02:53:38;4.72;;;2.90;;
57565;SDS011;63999;43.882;-0.310;2023-02-01T02:56:29;5.00;;;3.10;;
57565;SDS011;63999;43.882;-0.310;2023-02-01T02:59:16;6.90;;;3.65;;
57565;SDS011;63999;43.882;-0.310;2023-02-01T03:02:05;5.85;;;2.80;;
57565;SDS011;63999;43.882;-0.310;2023-02-01T03:04:54;5.30;;;3.13;;
57565;SDS011;63999;43.882;-0.310;2023-02-01T03:10:29;4.70;;;3.00;;
57565;SDS011;63999;43.882;-0.310;2023-02-01T03:13:12;4.82;;;3.20;;
57565;SDS011;63999;43.882;-0.310;2023-02-01T03:18:30;4.68;;;2.85;;
57565;SDS011;63999;43.882;-0.310;2023-02-01T03:21:16;3.83;;;2.88;;
57565;SDS011;63999;43.882;-0.310;2023-02-01T03:23:51;5.18;;;3.10;;
57565;SDS011;63999;43.882;-0.310;2023-02-01T03:26:20;5.05;;;2.83;;
57565;SDS011;63999;43.882;-0.310;2023-02-01T03:28:55;4.50;;;3.30;;
57565;SDS011;63999;43.882;-0.310;2023-02-01T03:31:33;4.93;;;3.17;;
57565;SDS011;63999;43.882;-0.310;2023-02-01T03:33:59;6.47;;;2.97;;
57565;SDS011;63999;43.882;-0.310;2023-02-01T03:41:46;4.90;;;3.20;;
57565;SDS011;63999;43.882;-0.310;2023-02-01T03:44:24;3.63;;;2.78;;
57565;SDS011;63999;43.882;-0.310;2023-02-01T03:47:02;4.43;;;2.58;;
57565;SDS011;63999;43.882;-0.310;2023-02-01T03:49:37;4.75;;;3.08;;
57565;SDS011;63999;43.882;-0.310;2023-02-01T03:52:06;3.13;;;2.80;;
57565;SDS011;63999;43.882;-0.310;2023-02-01T03:54:41;5.32;;;3.08;;
57565;SDS011;63999;43.882;-0.310;2023-02-01T03:57:11;4.70;;;2.70;;
57565;SDS011;63999;43.882;-0.310;2023-02-01T03:59:40;5.65;;;2.90;;
57565;SDS011;63999;43.882;-0.310;2023-02-01T04:02:08;7.22;;;2.83;;
57565;SDS011;63999;43.882;-0.310;2023-02-01T04:04:36;10.15;;;3.20;;
57565;SDS011;63999;43.882;-0.310;2023-02-01T04:07:03;5.55;;;3.13;;
57565;SDS011;63999;43.882;-0.310;2023-02-01T04:09:31;5.53;;;2.55;;
57565;SDS011;63999;43.882;-0.310;2023-02-01T04:11:58;3.80;;;2.25;;
57565;SDS011;63999;43.882;-0.310;2023-02-01T04:14:26;4.47;;;2.55;;
57565;SDS011;63999;43.882;-0.310;2023-02-01T04:16:52;5.05;;;2.30;;
57565;SDS011;63999;43.882;-0.310;2023-02-01T04:19:20;3.38;;;2.55;;
57565;SDS011;63999;43.882;-0.310;2023-02-01T04:21:46;4.50;;;2.95;;
57565;SDS011;63999;43.882;-0.310;2023-02-01T04:24:14;4.85;;;2.90;;
57565;SDS011;63999;43.882;-0.310;2023-02-01T04:26:40;3.97;;;2.58;;
57565;SDS011;63999;43.882;-0.310;2023-02-01T04:29:09;4.53;;;2.63;;
57565;SDS011;63999;43.882;-0.310;2023-02-01T04:31:35;4.65;;;2.50;;
57565;SDS011;63999;43.882;-0.310;2023-02-01T04:34:01;4.10;;;2.40;;
57565;SDS011;63999;43.882;-0.310;2023-02-01T04:36:27;4.57;;;2.30;;
57565;SDS011;63999;43.882;-0.310;2023-02-01T04:38:53;3.63;;;2.30;;
57565;SDS011;63999;43.882;-0.310;2023-02-01T04:41:19;4.15;;;2.22;;
57565;SDS011;63999;43.882;-0.310;2023-02-01T04:43:48;3.05;;;2.25;;
57565;SDS011;63999;43.882;-0.310;2023-02-01T04:46:15;3.92;;;2.10;;
57565;SDS011;63999;43.882;-0.310;2023-02-01T04:48:41;8.73;;;2.80;;
57565;SDS011;63999;43.882;-0.310;2023-02-01T04:51:07;5.63;;;2.58;;
57565;SDS011;63999;43.882;-0.310;2023-02-01T04:53:34;3.13;;;2.17;;
57565;SDS011;63999;43.882;-0.310;2023-02-01T04:56:00;3.58;;;2.30;;
57565;SDS011;63999;43.882;-0.310;2023-02-01T04:58:26;3.72;;;2.30;;
57565;SDS011;63999;43.882;-0.310;2023-02-01T05:00:52;4.93;;;2.17;;
57565;SDS011;63999;43.882;-0.310;2023-02-01T05:03:19;6.30;;;2.20;;
57565;SDS011;63999;43.882;-0.310;2023-02-01T05:05:47;6.82;;;2.15;;
57565;SDS011;63999;43.882;-0.310;2023-02-01T05:08:14;3.38;;;2.20;;
57565;SDS011;63999;43.882;-0.310;2023-02-01T05:10:42;5.03;;;2.30;;
57565;SDS011;63999;43.882;-0.310;2023-02-01T05:13:10;5.05;;;1.90;;
57565;SDS011;63999;43.882;-0.310;2023-02-01T05:15:55;4.75;;;2.05;;
57565;SDS011;63999;43.882;-0.310;2023-02-01T05:18:21;2.63;;;1.75;;
57565;SDS011;63999;43.882;-0.310;2023-02-01T05:20:47;4.25;;;2.42;;
57565;SDS011;63999;43.882;-0.310;2023-02-01T05:23:14;3.97;;;2.08;;
57565;SDS011;63999;43.882;-0.310;2023-02-01T05:25:41;3.88;;;2.10;;
57565;SDS011;63999;43.882;-0.310;2023-02-01T05:28:08;3.10;;;1.90;;
57565;SDS011;63999;43.882;-0.310;2023-02-01T05:30:36;3.38;;;2.00;;
57565;SDS011;63999;43.882;-0.310;2023-02-01T05:33:02;2.95;;;1.90;;
57565;SDS011;63999;43.882;-0.310;2023-02-01T05:35:31;3.65;;;2.20;;
57565;SDS011;63999;43.882;-0.310;2023-02-01T05:37:57;4.32;;;2.10;;
57565;SDS011;63999;43.882;-0.310;2023-02-01T05:40:25;4.80;;;2.75;;
57565;SDS011;63999;43.882;-0.310;2023-02-01T05:42:52;4.55;;;2.22;;
57565;SDS011;63999;43.882;-0.310;2023-02-01T05:45:19;6.78;;;3.25;;
57565;SDS011;63999;43.882;-0.310;2023-02-01T05:47:46;5.63;;;2.50;;
57565;SDS011;63999;43.882;-0.310;2023-02-01T05:50:14;5.80;;;2.10;;
57565;SDS011;63999;43.882;-0.310;2023-02-01T05:52:42;3.47;;;2.03;;
57565;SDS011;63999;43.882;-0.310;2023-02-01T05:55:09;3.40;;;2.22;;
57565;SDS011;63999;43.882;-0.310;2023-02-01T05:57:36;8.93;;;2.60;;
57565;SDS011;63999;43.882;-0.310;2023-02-01T06:00:05;5.30;;;2.42;;
57565;SDS011;63999;43.882;-0.310;2023-02-01T06:02:31;4.43;;;2.10;;
57565;SDS011;63999;43.882;-0.310;2023-02-01T06:04:59;4.50;;;2.25;;
57565;SDS011;63999;43.882;-0.310;2023-02-01T06:07:25;4.28;;;2.30;;
57565;SDS011;63999;43.882;-0.310;2023-02-01T06:09:53;3.58;;;2.40;;
57565;SDS011;63999;43.882;-0.310;2023-02-01T06:12:20;4.88;;;2.67;;
57565;SDS011;63999;43.882;-0.310;2023-02-01T06:14:53;3.63;;;2.60;;
57565;SDS011;63999;43.882;-0.310;2023-02-01T06:17:20;3.50;;;2.65;;
57565;SDS011;63999;43.882;-0.310;2023-02-01T06:19:47;5.13;;;2.40;;
57565;SDS011;63999;43.882;-0.310;2023-02-01T06:22:14;4.00;;;2.45;;
57565;SDS011;63999;43.882;-0.310;2023-02-01T06:24:42;2.28;;;1.83;;
57565;SDS011;63999;43.882;-0.310;2023-02-01T06:27:09;5.03;;;2.17;;
57565;SDS011;63999;43.882;-0.310;2023-02-01T06:29:38;3.72;;;2.08;;
57565;SDS011;63999;43.882;-0.310;2023-02-01T06:32:04;3.70;;;2.25;;
57565;SDS011;63999;43.882;-0.310;2023-02-01T06:34:32;5.15;;;2.20;;
57565;SDS011;63999;43.882;-0.310;2023-02-01T06:37:00;3.88;;;2.30;;
57565;SDS011;63999;43.882;-0.310;2023-02-01T06:39:27;4.95;;;2.22;;
57565;SDS011;63999;43.882;-0.310;2023-02-01T06:41:54;3.03;;;1.95;;
57565;SDS011;63999;43.882;-0.310;2023-02-01T06:44:22;3.08;;;2.00;;
57565;SDS011;63999;43.882;-0.310;2023-02-01T06:46:48;3.05;;;2.08;;
57565;SDS011;63999;43.882;-0.310;2023-02-01T06:49:16;6.00;;;2.35;;
57565;SDS011;63999;43.882;-0.310;2023-02-01T06:51:44;5.05;;;2.50;;
57565;SDS011;63999;43.882;-0.310;2023-02-01T06:54:11;5.65;;;2.65;;
57565;SDS011;63999;43.882;-0.310;2023-02-01T06:56:38;4.88;;;2.45;;
57565;SDS011;63999;43.882;-0.310;2023-02-01T06:59:06;4.90;;;2.42;;
57565;SDS011;63999;43.882;-0.310;2023-02-01T07:01:33;4.53;;;2.75;;
57565;SDS011;63999;43.882;-0.310;2023-02-01T07:03:59;7.40;;;2.72;;
57565;SDS011;63999;43.882;-0.310;2023-02-01T07:06:25;5.75;;;2.60;;
57565;SDS011;63999;43.882;-0.310;2023-02-01T07:08:51;4.78;;;3.58;;
57565;SDS011;63999;43.882;-0.310;2023-02-01T07:11:17;7.57;;;3.83;;
57565;SDS011;63999;43.882;-0.310;2023-02-01T07:13:44;5.28;;;3.75;;
57565;SDS011;63999;43.882;-0.310;2023-02-01T07:16:11;7.28;;;3.75;;
57565;SDS011;63999;43.882;-0.310;2023-02-01T07:18:39;8.40;;;3.78;;
57565;SDS011;63999;43.882;-0.310;2023-02-01T07:21:05;6.32;;;4.40;;
57565;SDS011;63999;43.882;-0.310;2023-02-01T07:23:31;6.28;;;3.97;;
57565;SDS011;63999;43.882;-0.310;2023-02-01T07:25:57;4.95;;;3.95;;
57565;SDS011;63999;43.882;-0.310;2023-02-01T07:28:25;7.38;;;4.30;;
57565;SDS011;63999;43.882;-0.310;2023-02-01T07:31:04;10.55;;;7.53;;
57565;SDS011;63999;43.882;-0.310;2023-02-01T07:33:38;9.95;;;6.28;;
57565;SDS011;63999;43.882;-0.310;2023-02-01T07:36:05;11.25;;;5.20;;
57565;SDS011;63999;43.882;-0.310;2023-02-01T07:38:33;8.52;;;5.88;;
57565;SDS011;63999;43.882;-0.310;2023-02-01T07:41:01;8.20;;;5.78;;
57565;SDS011;63999;43.882;-0.310;2023-02-01T07:43:29;9.00;;;6.22;;
57565;SDS011;63999;43.882;-0.310;2023-02-01T07:45:56;10.02;;;6.65;;
57565;SDS011;63999;43.882;-0.310;2023-02-01T07:48:22;12.20;;;6.63;;
57565;SDS011;63999;43.882;-0.310;2023-02-01T07:51:09;10.63;;;7.50;;
57565;SDS011;63999;43.882;-0.310;2023-02-01T07:53:37;8.40;;;6.68;;
57565;SDS011;63999;43.882;-0.310;2023-02-01T07:56:04;10.40;;;6.55;;
57565;SDS011;63999;43.882;-0.310;2023-02-01T07:58:34;8.68;;;5.68;;
57565;SDS011;63999;43.882;-0.310;2023-02-01T08:01:00;8.00;;;6.18;;
57565;SDS011;63999;43.882;-0.310;2023-02-01T08:03:44;7.30;;;5.78;;
57565;SDS011;63999;43.882;-0.310;2023-02-01T08:06:10;9.18;;;5.85;;
57565;SDS011;63999;43.882;-0.310;2023-02-01T08:08:36;10.18;;;6.72;;
57565;SDS011;63999;43.882;-0.310;2023-02-01T08:11:02;16.77;;;12.15;;
57565;SDS011;63999;43.882;-0.310;2023-02-01T08:13:29;9.05;;;6.63;;
57565;SDS011;63999;43.882;-0.310;2023-02-01T08:15:59;17.85;;;9.65;;
57565;SDS011;63999;43.882;-0.310;2023-02-01T08:18:26;20.00;;;9.68;;
57565;SDS011;63999;43.882;-0.310;2023-02-01T08:20:52;20.08;;;11.20;;
57565;SDS011;63999;43.882;-0.310;2023-02-01T08:23:20;21.90;;;7.78;;
57565;SDS011;63999;43.882;-0.310;2023-02-01T08:25:48;13.68;;;7.90;;
57565;SDS011;63999;43.882;-0.310;2023-02-01T08:28:14;13.18;;;9.38;;
57565;SDS011;63999;43.882;-0.310;2023-02-01T08:30:43;17.83;;;12.10;;
57565;SDS011;63999;43.882;-0.310;2023-02-01T08:33:11;23.25;;;14.48;;
57565;SDS011;63999;43.882;-0.310;2023-02-01T08:35:39;28.80;;;20.50;;
57565;SDS011;63999;43.882;-0.310;2023-02-01T08:38:06;27.10;;;19.95;;
57565;SDS011;63999;43.882;-0.310;2023-02-01T08:40:33;22.67;;;16.95;;
57565;SDS011;63999;43.882;-0.310;2023-02-01T08:43:00;24.77;;;16.85;;
57565;SDS011;63999;43.882;-0.310;2023-02-01T08:45:28;33.60;;;23.00;;
57565;SDS011;63999;43.882;-0.310;2023-02-01T08:47:56;35.72;;;24.23;;
57565;SDS011;63999;43.882;-0.310;2023-02-01T08:50:23;34.30;;;22.85;;
57565;SDS011;63999;43.882;-0.310;2023-02-01T08:52:51;34.47;;;22.10;;
57565;SDS011;63999;43.882;-0.310;2023-02-01T08:55:19;34.83;;;23.17;;
57565;SDS011;63999;43.882;-0.310;2023-02-01T08:57:46;30.65;;;22.48;;
57565;SDS011;63999;43.882;-0.310;2023-02-01T09:00:14;33.00;;;22.58;;
57565;SDS011;63999;43.882;-0.310;2023-02-01T09:02:43;31.85;;;21.95;;
57565;SDS011;63999;43.882;-0.310;2023-02-01T09:05:10;32.40;;;20.73;;
57565;SDS011;63999;43.882;-0.310;2023-02-01T09:07:37;32.47;;;20.55;;
57565;SDS011;63999;43.882;-0.310;2023-02-01T09:10:05;28.70;;;19.15;;
57565;SDS011;63999;43.882;-0.310;2023-02-01T09:12:32;23.65;;;18.35;;
57565;SDS011;63999;43.882;-0.310;2023-02-01T09:15:01;26.15;;;19.55;;
57565;SDS011;63999;43.882;-0.310;2023-02-01T09:17:28;26.80;;;17.95;;
57565;SDS011;63999;43.882;-0.310;2023-02-01T09:19:56;33.85;;;21.48;;
57565;SDS011;63999;43.882;-0.310;2023-02-01T09:22:23;23.92;;;16.42;;
57565;SDS011;63999;43.882;-0.310;2023-02-01T09:24:51;21.08;;;15.15;;
57565;SDS011;63999;43.882;-0.310;2023-02-01T09:27:18;22.23;;;15.65;;
57565;SDS011;63999;43.882;-0.310;2023-02-01T09:29:46;22.23;;;16.63;;
57565;SDS011;63999;43.882;-0.310;2023-02-01T09:32:19;30.30;;;16.25;;
57565;SDS011;63999;43.882;-0.310;2023-02-01T09:34:47;21.83;;;17.33;;
57565;SDS011;63999;43.882;-0.310;2023-02-01T09:37:15;22.48;;;15.20;;
57565;SDS011;63999;43.882;-0.310;2023-02-01T09:39:43;22.02;;;13.45;;
57565;SDS011;63999;43.882;-0.310;2023-02-01T09:45:17;14.05;;;9.32;;
57565;SDS011;63999;43.882;-0.310;2023-02-01T09:47:48;15.07;;;11.80;;
57565;SDS011;63999;43.882;-0.310;2023-02-01T09:50:23;12.10;;;7.80;;
57565;SDS011;63999;43.882;-0.310;2023-02-01T09:53:03;10.52;;;5.38;;
57565;SDS011;63999;43.882;-0.310;2023-02-01T09:55:50;9.77;;;6.03;;
57565;SDS011;63999;43.882;-0.310;2023-02-01T10:00:50;10.52;;;5.90;;
57565;SDS011;63999;43.882;-0.310;2023-02-01T10:03:19;7.85;;;5.43;;
57565;SDS011;63999;43.882;-0.310;2023-02-01T10:05:54;12.50;;;5.75;;
57565;SDS011;63999;43.882;-0.310;2023-02-01T10:11:04;12.48;;;5.65;;
57565;SDS011;63999;43.882;-0.310;2023-02-01T10:14:01;13.00;;;6.57;;
57565;SDS011;63999;43.882;-0.310;2023-02-01T10:19:21;11.98;;;5.93;;
57565;SDS011;63999;43.882;-0.310;2023-02-01T10:25:52;17.65;;;11.57;;
57565;SDS011;63999;43.882;-0.310;2023-02-01T10:30:47;15.20;;;9.73;;
57565;SDS011;63999;43.882;-0.310;2023-02-01T10:35:44;20.85;;;12.38;;
57565;SDS011;63999;43.882;-0.310;2023-02-01T10:38:16;17.45;;;10.70;;
57565;SDS011;63999;43.882;-0.310;2023-02-01T10:40:50;15.93;;;8.60;;
57565;SDS011;63999;43.882;-0.310;2023-02-01T10:43:18;9.95;;;7.32;;
57565;SDS011;63999;43.882;-0.310;2023-02-01T10:45:45;10.68;;;6.38;;
57565;SDS011;63999;43.882;-0.310;2023-02-01T10:48:12;10.20;;;5.55;;
57565;SDS011;63999;43.882;-0.310;2023-02-01T10:50:51;12.90;;;6.38;;
57565;SDS011;63999;43.882;-0.310;2023-02-01T10:53:20;11.30;;;5.80;;
57565;SDS011;63999;43.882;-0.310;2023-02-01T10:56:05;12.35;;;6.93;;
57565;SDS011;63999;43.882;-0.310;2023-02-01T10:58:33;15.93;;;7.22;;
57565;SDS011;63999;43.882;-0.310;2023-02-01T11:01:15;16.40;;;10.20;;
57565;SDS011;63999;43.882;-0.310;2023-02-01T11:06:32;12.80;;;8.27;;
57565;SDS011;63999;43.882;-0.310;2023-02-01T11:14:16;13.68;;;7.45;;
57565;SDS011;63999;43.882;-0.310;2023-02-01T11:16:48;11.13;;;6.43;;
57565;SDS011;63999;43.882;-0.310;2023-02-01T11:19:19;16.17;;;7.55;;
57565;SDS011;63999;43.882;-0.310;2023-02-01T11:21:55;13.90;;;8.25;;
57565;SDS011;63999;43.882;-0.310;2023-02-01T11:27:03;12.13;;;5.63;;
57565;SDS011;63999;43.882;-0.310;2023-02-01T11:29:40;8.50;;;3.75;;
57565;SDS011;63999;43.882;-0.310;2023-02-01T11:32:14;9.88;;;3.90;;
57565;SDS011;63999;43.882;-0.310;2023-02-01T11:34:51;10.13;;;3.35;;
57565;SDS011;63999;43.882;-0.310;2023-02-01T11:37:25;8.88;;;3.53;;
57565;SDS011;63999;43.882;-0.310;2023-02-01T11:40:03;9.35;;;2.92;;
57565;SDS011;63999;43.882;-0.310;2023-02-01T11:42:57;6.28;;;2.67;;
57565;SDS011;63999;43.882;-0.310;2023-02-01T11:45:27;8.13;;;3.10;;
57565;SDS011;63999;43.882;-0.310;2023-02-01T11:47:56;7.22;;;3.10;;
57565;SDS011;63999;43.882;-0.310;2023-02-01T11:50:28;8.02;;;2.92;;
57565;SDS011;63999;43.882;-0.310;2023-02-01T11:53:11;6.05;;;2.25;;
57565;SDS011;63999;43.882;-0.310;2023-02-01T12:04:21;7.63;;;4.07;;
57565;SDS011;63999;43.882;-0.310;2023-02-01T12:06:55;12.18;;;4.75;;
57565;SDS011;63999;43.882;-0.310;2023-02-01T12:09:45;7.28;;;3.40;;
57565;SDS011;63999;43.882;-0.310;2023-02-01T12:17:36;5.22;;;2.38;;
57565;SDS011;63999;43.882;-0.310;2023-02-01T12:20:33;5.68;;;2.00;;
57565;SDS011;63999;43.882;-0.310;2023-02-01T12:28:55;5.32;;;2.28;;
57565;SDS011;63999;43.882;-0.310;2023-02-01T12:37:44;16.15;;;10.52;;
57565;SDS011;63999;43.882;-0.310;2023-02-01T12:40:37;6.90;;;4.20;;
57565;SDS011;63999;43.882;-0.310;2023-02-01T12:48:59;6.32;;;3.25;;
57565;SDS011;63999;43.882;-0.310;2023-02-01T12:51:41;10.95;;;2.55;;
57565;SDS011;63999;43.882;-0.310;2023-02-01T12:54:31;6.78;;;2.42;;
57565;SDS011;63999;43.882;-0.310;2023-02-01T12:57:11;6.68;;;2.22;;
57565;SDS011;63999;43.882;-0.310;2023-02-01T12:59:56;5.25;;;2.10;;
57565;SDS011;63999;43.882;-0.310;2023-02-01T13:05:50;7.55;;;1.90;;
57565;SDS011;63999;43.882;-0.310;2023-02-01T13:11:29;5.47;;;1.88;;
57565;SDS011;63999;43.882;-0.310;2023-02-01T13:16:45;4.47;;;1.48;;
57565;SDS011;63999;43.882;-0.310;2023-02-01T13:19:26;3.15;;;1.45;;
57565;SDS011;63999;43.882;-0.310;2023-02-01T13:22:15;8.98;;;3.75;;
57565;SDS011;63999;43.882;-0.310;2023-02-01T13:25:03;5.32;;;3.00;;
57565;SDS011;63999;43.882;-0.310;2023-02-01T13:27:53;6.57;;;3.35;;
57565;SDS011;63999;43.882;-0.310;2023-02-01T13:30:30;5.82;;;2.00;;
57565;SDS011;63999;43.882;-0.310;2023-02-01T13:35:55;6.65;;;1.50;;
57565;SDS011;63999;43.882;-0.310;2023-02-01T13:43:50;6.22;;;1.90;;
57565;SDS011;63999;43.882;-0.310;2023-02-01T13:46:20;3.08;;;1.15;;
57565;SDS011;63999;43.882;-0.310;2023-02-01T13:48:47;5.78;;;2.10;;
57565;SDS011;63999;43.882;-0.310;2023-02-01T13:51:18;4.72;;;1.63;;
57565;SDS011;63999;43.882;-0.310;2023-02-01T13:54:04;2.63;;;1.60;;
57565;SDS011;63999;43.882;-0.310;2023-02-01T13:56:42;2.28;;;0.90;;
57565;SDS011;63999;43.882;-0.310;2023-02-01T14:05:12;2.70;;;0.88;;
57565;SDS011;63999;43.882;-0.310;2023-02-01T14:16:11;2.28;;;0.70;;
57565;SDS011;63999;43.882;-0.310;2023-02-01T14:24:17;2.65;;;1.40;;
57565;SDS011;63999;43.882;-0.310;2023-02-01T14:26:51;4.60;;;1.48;;
57565;SDS011;63999;43.882;-0.310;2023-02-01T14:44:44;2.50;;;0.87;;
57565;SDS011;63999;43.882;-0.310;2023-02-01T14:50:04;3.53;;;1.00;;
57565;SDS011;63999;43.882;-0.310;2023-02-01T14:52:49;3.15;;;1.00;;
57565;SDS011;63999;43.882;-0.310;2023-02-01T14:55:19;2.15;;;0.82;;
57565;SDS011;63999;43.882;-0.310;2023-02-01T14:58:06;4.15;;;0.88;;
57565;SDS011;63999;43.882;-0.310;2023-02-01T15:00:50;2.20;;;0.70;;
57565;SDS011;63999;43.882;-0.310;2023-02-01T15:06:22;3.88;;;2.58;;
57565;SDS011;63999;43.882;-0.310;2023-02-01T15:09:02;8.88;;;4.63;;
57565;SDS011;63999;43.882;-0.310;2023-02-01T15:14:42;3.03;;;0.90;;
57565;SDS011;63999;43.882;-0.310;2023-02-01T15:19:56;4.68;;;1.77;;
57565;SDS011;63999;43.882;-0.310;2023-02-01T15:22:26;4.25;;;0.88;;
57565;SDS011;63999;43.882;-0.310;2023-02-01T15:24:55;2.63;;;0.80;;
57565;SDS011;63999;43.882;-0.310;2023-02-01T15:27:26;1.35;;;0.57;;
57565;SDS011;63999;43.882;-0.310;2023-02-01T15:29:54;2.58;;;0.82;;
57565;SDS011;63999;43.882;-0.310;2023-02-01T15:32:36;1.65;;;0.50;;
57565;SDS011;63999;43.882;-0.310;2023-02-01T15:35:05;3.35;;;0.82;;
57565;SDS011;63999;43.882;-0.310;2023-02-01T15:41:05;2.55;;;0.90;;
57565;SDS011;63999;43.882;-0.310;2023-02-01T15:43:42;1.83;;;0.85;;
57565;SDS011;63999;43.882;-0.310;2023-02-01T15:46:33;2.83;;;1.30;;
57565;SDS011;63999;43.882;-0.310;2023-02-01T15:49:19;4.20;;;1.08;;
57565;SDS011;63999;43.882;-0.310;2023-02-01T15:51:51;3.58;;;0.85;;
57565;SDS011;63999;43.882;-0.310;2023-02-01T15:54:30;2.47;;;0.90;;
57565;SDS011;63999;43.882;-0.310;2023-02-01T15:57:03;1.77;;;0.80;;
57565;SDS011;63999;43.882;-0.310;2023-02-01T15:59:41;2.75;;;0.82;;
57565;SDS011;63999;43.882;-0.310;2023-02-01T16:02:27;2.83;;;0.70;;
57565;SDS011;63999;43.882;-0.310;2023-02-01T16:05:05;3.13;;;0.82;;
57565;SDS011;63999;43.882;-0.310;2023-02-01T16:08:12;1.83;;;0.68;;
57565;SDS011;63999;43.882;-0.310;2023-02-01T16:10:44;1.75;;;0.70;;
57565;SDS011;63999;43.882;-0.310;2023-02-01T16:13:15;2.35;;;0.88;;
57565;SDS011;63999;43.882;-0.310;2023-02-01T16:15:46;3.90;;;0.90;;
57565;SDS011;63999;43.882;-0.310;2023-02-01T16:18:15;2.78;;;0.90;;
57565;SDS011;63999;43.882;-0.310;2023-02-01T16:20:44;1.73;;;0.90;;
57565;SDS011;63999;43.882;-0.310;2023-02-01T16:23:14;3.80;;;0.70;;
57565;SDS011;63999;43.882;-0.310;2023-02-01T16:25:43;3.30;;;0.77;;
57565;SDS011;63999;43.882;-0.310;2023-02-01T16:28:13;4.70;;;1.10;;
57565;SDS011;63999;43.882;-0.310;2023-02-01T16:30:42;4.15;;;1.17;;
57565;SDS011;63999;43.882;-0.310;2023-02-01T16:33:13;4.25;;;0.98;;
57565;SDS011;63999;43.882;-0.310;2023-02-01T16:35:47;2.55;;;0.80;;
57565;SDS011;63999;43.882;-0.310;2023-02-01T16:38:18;3.25;;;1.10;;
57565;SDS011;63999;43.882;-0.310;2023-02-01T16:40:48;3.42;;;0.95;;
57565;SDS011;63999;43.882;-0.310;2023-02-01T16:43:18;6.80;;;1.58;;
57565;SDS011;63999;43.882;-0.310;2023-02-01T16:45:50;8.25;;;2.63;;
57565;SDS011;63999;43.882;-0.310;2023-02-01T16:48:22;9.32;;;1.70;;
57565;SDS011;63999;43.882;-0.310;2023-02-01T16:51:01;6.10;;;2.40;;
57565;SDS011;63999;43.882;-0.310;2023-02-01T16:53:33;11.68;;;7.90;;
57565;SDS011;63999;43.882;-0.310;2023-02-01T16:55:59;9.75;;;5.80;;
57565;SDS011;63999;43.882;-0.310;2023-02-01T16:58:26;8.20;;;5.57;;
57565;SDS011;63999;43.882;-0.310;2023-02-01T17:00:52;36.60;;;23.08;;
57565;SDS011;63999;43.882;-0.310;2023-02-01T17:03:20;99.25;;;58.67;;
57565;SDS011;63999;43.882;-0.310;2023-02-01T17:05:49;197.63;;;114.18;;
57565;SDS011;63999;43.882;-0.310;2023-02-01T17:08:36;209.02;;;126.80;;
57565;SDS011;63999;43.882;-0.310;2023-02-01T17:11:07;140.63;;;88.78;;
57565;SDS011;63999;43.882;-0.310;2023-02-01T17:13:34;63.20;;;43.50;;
57565;SDS011;63999;43.882;-0.310;2023-02-01T17:16:20;36.65;;;25.33;;
57565;SDS011;63999;43.882;-0.310;2023-02-01T17:18:53;28.73;;;19.95;;
57565;SDS011;63999;43.882;-0.310;2023-02-01T17:21:48;27.52;;;19.63;;
57565;SDS011;63999;43.882;-0.310;2023-02-01T17:24:21;25.10;;;16.95;;
57565;SDS011;63999;43.882;-0.310;2023-02-01T17:26:50;19.67;;;13.20;;
57565;SDS011;63999;43.882;-0.310;2023-02-01T17:29:18;17.20;;;11.70;;
57565;SDS011;63999;43.882;-0.310;2023-02-01T17:31:47;15.68;;;10.20;;
57565;SDS011;63999;43.882;-0.310;2023-02-01T17:34:20;20.42;;;12.60;;
57565;SDS011;63999;43.882;-0.310;2023-02-01T17:36:48;16.13;;;10.88;;
57565;SDS011;63999;43.882;-0.310;2023-02-01T17:39:16;14.05;;;9.90;;
57565;SDS011;63999;43.882;-0.310;2023-02-01T17:42:03;11.80;;;8.73;;
57565;SDS011;63999;43.882;-0.310;2023-02-01T17:44:36;11.57;;;8.15;;